sensor_id;sensor_type;location;lat;lon;timestamp;P1;P2;P0
57798;PMS7003;43626;53.866;30.298;2023-05-19T00:01:43;18.6;15.8;9.4
57798;PMS7003;43626;53.866;30.298;2023-05-19T00:07:11;17.2;13.6;8.6
57798;PMS7003;43626;53.866;30.298;2023-05-19T00:11:27;16.8;14.4;8.8
57798;PMS7003;43626;53.866;30.298;2023-05-19T00:16:37;16.4;14.8;9.2
57798;PMS7003;43626;53.866;30.298;2023-05-19T00:21:47;17.8;14.6;9.8
57798;PMS7003;43626;53.866;30.298;2023-05-19T00:27:11;16.4;15;9.2
57798;PMS7003;43626;53.866;30.298;2023-05-19T00:31:39;15.6;13.8;9
57798;PMS7003;43626;53.866;30.298;2023-05-19T00:37:09;17.4;14.8;10.2
57798;PMS7003;43626;53.866;30.298;2023-05-19T00:42:09;16.3;14.3;8.3
57798;PMS7003;43626;53.866;30.298;2023-05-19T00:46:39;18.6;14.6;9.2
57798;PMS7003;43626;53.866;30.298;2023-05-19T00:52:01;15.8;13.6;8.4
57798;PMS7003;43626;53.866;30.298;2023-05-19T00:57:09;16;14.2;8.6
57798;PMS7003;43626;53.866;30.298;2023-05-19T01:01:57;14.4;12.2;8
57798;PMS7003;43626;53.866;30.298;2023-05-19T01:06:51;13.6;12.6;8
57798;PMS7003;43626;53.866;30.298;2023-05-19T01:11:49;15.4;13;8.4
57798;PMS7003;43626;53.866;30.298;2023-05-19T01:17:11;14.8;12.8;8
57798;PMS7003;43626;53.866;30.298;2023-05-19T01:22:05;17;14.6;8.4
57798;PMS7003;43626;53.866;30.298;2023-05-19T01:26:58;14.8;13.4;8.2
57798;PMS7003;43626;53.866;30.298;2023-05-19T01:31:37;14.8;12.2;7.6
57798;PMS7003;43626;53.866;30.298;2023-05-19T01:37:09;16.2;14;8.6
57798;PMS7003;43626;53.866;30.298;2023-05-19T01:41:39;15.3;12.5;7.8
57798;PMS7003;43626;53.866;30.298;2023-05-19T01:46:57;15;12.2;8.2
57798;PMS7003;43626;53.866;30.298;2023-05-19T01:51:57;15.8;13.2;8.4
57798;PMS7003;43626;53.866;30.298;2023-05-19T01:56:40;14.8;14;8.2
57798;PMS7003;43626;53.866;30.298;2023-05-19T02:01:48;15.6;12.6;7.8
57798;PMS7003;43626;53.866;30.298;2023-05-19T02:06:29;12.8;11.4;7.4
57798;PMS7003;43626;53.866;30.298;2023-05-19T02:11:41;11.6;10.4;7.4
57798;PMS7003;43626;53.866;30.298;2023-05-19T02:17:01;12;11;7.2
57798;PMS7003;43626;53.866;30.298;2023-05-19T02:22:09;14;11.6;7
57798;PMS7003;43626;53.866;30.298;2023-05-19T02:26:27;11.8;11.2;7.2
57798;PMS7003;43626;53.866;30.298;2023-05-19T02:31:59;11.4;10.4;6.6
57798;PMS7003;43626;53.866;30.298;2023-05-19T02:37:01;11.2;9.2;5.2
57798;PMS7003;43626;53.866;30.298;2023-05-19T02:41:57;8.8;8.8;6
57798;PMS7003;43626;53.866;30.298;2023-05-19T02:46:49;9;7.6;5.2
57798;PMS7003;43626;53.866;30.298;2023-05-19T02:51:57;10.4;9.4;5.6
57798;PMS7003;43626;53.866;30.298;2023-05-19T02:57:09;9.4;8.2;5.4
57798;PMS7003;43626;53.866;30.298;2023-05-19T03:02:09;8;7.4;5.6
57798;PMS7003;43626;53.866;30.298;2023-05-19T03:06:35;11.2;8.4;5
57798;PMS7003;43626;53.866;30.298;2023-05-19T03:12:09;10.4;8.6;5
57798;PMS7003;43626;53.866;30.298;2023-05-19T03:16:49;9.6;7.6;5.2
57798;PMS7003;43626;53.866;30.298;2023-05-19T03:21:39;9.8;8.8;5
57798;PMS7003;43626;53.866;30.298;2023-05-19T03:26:39;9.6;7.6;5
57798;PMS7003;43626;53.866;30.298;2023-05-19T03:32:09;8;6.8;3.8
57798;PMS7003;43626;53.866;30.298;2023-05-19T03:36:27;9.2;7.4;4.4
57798;PMS7003;43626;53.866;30.298;2023-05-19T03:42:09;9;7.8;4.3
57798;PMS7003;43626;53.866;30.298;2023-05-19T03:47:09;8.6;7.4;4.6
57798;PMS7003;43626;53.866;30.298;2023-05-19T03:51:37;9.2;7.2;4.8
57798;PMS7003;43626;53.866;30.298;2023-05-19T03:56:27;8.4;7.4;4.4
57798;PMS7003;43626;53.866;30.298;2023-05-19T04:01:57;9.6;8.2;4.6
57798;PMS7003;43626;53.866;30.298;2023-05-19T04:06:57;9;7.2;4.8
57798;PMS7003;43626;53.866;30.298;2023-05-19T04:12:01;8.8;7;4.4
57798;PMS7003;43626;53.866;30.298;2023-05-19T04:16:57;7.2;6.6;4.6
57798;PMS7003;43626;53.866;30.298;2023-05-19T04:22:09;9;7.2;4.6
57798;PMS7003;43626;53.866;30.298;2023-05-19T04:26:59;7;6;4.2
57798;PMS7003;43626;53.866;30.298;2023-05-19T04:31:37;7;6.4;4
57798;PMS7003;43626;53.866;30.298;2023-05-19T04:36:45;9.4;7;4.8
57798;PMS7003;43626;53.866;30.298;2023-05-19T04:42:07;9;7.5;4.5
57798;PMS7003;43626;53.866;30.298;2023-05-19T04:46:27;7.6;6.2;3.6
57798;PMS7003;43626;53.866;30.298;2023-05-19T04:51:47;6.2;5.2;3.4
57798;PMS7003;43626;53.866;30.298;2023-05-19T04:56:57;7.4;6.4;4
57798;PMS7003;43626;53.866;30.298;2023-05-19T05:01:27;6.8;5.8;3.8
57798;PMS7003;43626;53.866;30.298;2023-05-19T05:06:47;7;5.4;3.2
57798;PMS7003;43626;53.866;30.298;2023-05-19T05:11:52;5;5;3.2
57798;PMS7003;43626;53.866;30.298;2023-05-19T05:16:28;7.4;5.2;2.8
57798;PMS7003;43626;53.866;30.298;2023-05-19T05:21:49;5.8;4.8;3
57798;PMS7003;43626;53.866;30.298;2023-05-19T05:27:11;7.2;5.8;3.2
57798;PMS7003;43626;53.866;30.298;2023-05-19T05:31:39;7.6;5.4;3
57798;PMS7003;43626;53.866;30.298;2023-05-19T05:36:57;6.2;4.8;3.2
57798;PMS7003;43626;53.866;30.298;2023-05-19T05:42:03;7.2;5.4;3.2
57798;PMS7003;43626;53.866;30.298;2023-05-19T05:46:59;7;5.8;3.5
57798;PMS7003;43626;53.866;30.298;2023-05-19T05:51:58;5.6;4.4;2.6
57798;PMS7003;43626;53.866;30.298;2023-05-19T05:57:00;4.8;4.2;2.4
57798;PMS7003;43626;53.866;30.298;2023-05-19T06:02:09;7.2;4.4;2.4
57798;PMS7003;43626;53.866;30.298;2023-05-19T06:07:09;3.6;3;1.6
57798;PMS7003;43626;53.866;30.298;2023-05-19T06:11:25;4.2;3.4;1.6
57798;PMS7003;43626;53.866;30.298;2023-05-19T06:17:07;5;3.8;2
57798;PMS7003;43626;53.866;30.298;2023-05-19T06:22:11;3.4;3.4;2.4
57798;PMS7003;43626;53.866;30.298;2023-05-19T06:26:27;4;3.4;2
57798;PMS7003;43626;53.866;30.298;2023-05-19T06:31:43;5;3.6;2
57798;PMS7003;43626;53.866;30.298;2023-05-19T06:37:09;4.2;4.2;2.6
57798;PMS7003;43626;53.866;30.298;2023-05-19T06:41:57;5.6;3.2;2
57798;PMS7003;43626;53.866;30.298;2023-05-19T06:46:55;4.3;3.3;2.3
57798;PMS7003;43626;53.866;30.298;2023-05-19T06:52:10;3.8;3;1.8
57798;PMS7003;43626;53.866;30.298;2023-05-19T06:56:37;4;3.6;1.8
57798;PMS7003;43626;53.866;30.298;2023-05-19T07:02:03;4.4;4.2;2
57798;PMS7003;43626;53.866;30.298;2023-05-19T07:06:51;4;3.2;1.6
57798;PMS7003;43626;53.866;30.298;2023-05-19T07:11:39;4.4;2.4;1.4
57798;PMS7003;43626;53.866;30.298;2023-05-19T07:17:03;2.4;2.2;1.2
57798;PMS7003;43626;53.866;30.298;2023-05-19T07:21:39;3.4;2.4;1.2
57798;PMS7003;43626;53.866;30.298;2023-05-19T07:26:27;3.4;2.4;1.2
57798;PMS7003;43626;53.866;30.298;2023-05-19T07:31:57;3.2;3;1.8
57798;PMS7003;43626;53.866;30.298;2023-05-19T07:37:11;3.2;1.8;1.2
57798;PMS7003;43626;53.866;30.298;2023-05-19T07:41:57;3.4;2.4;1.4
57798;PMS7003;43626;53.866;30.298;2023-05-19T07:47:04;3.3;2.3;0.8
57798;PMS7003;43626;53.866;30.298;2023-05-19T07:51:39;2.2;1.6;0.6
57798;PMS7003;43626;53.866;30.298;2023-05-19T07:56:59;3.6;2;1.2
57798;PMS7003;43626;53.866;30.298;2023-05-19T08:01:53;2.2;1.8;0.6
57798;PMS7003;43626;53.866;30.298;2023-05-19T08:06:49;2.4;1.6;1
57798;PMS7003;43626;53.866;30.298;2023-05-19T08:11:55;2;1.8;1
57798;PMS7003;43626;53.866;30.298;2023-05-19T08:16:51;3.2;2.4;1.2
57798;PMS7003;43626;53.866;30.298;2023-05-19T08:21:39;2.6;2.2;1.2
57798;PMS7003;43626;53.866;30.298;2023-05-19T08:27:04;2.2;2;0.8
57798;PMS7003;43626;53.866;30.298;2023-05-19T08:32:09;2.6;2;1
57798;PMS7003;43626;53.866;30.298;2023-05-19T08:36:37;2.8;1.8;0.6
57798;PMS7003;43626;53.866;30.298;2023-05-19T08:41:55;2.2;2.2;0.8
57798;PMS7003;43626;53.866;30.298;2023-05-19T08:47:01;3.3;2.5;1
57798;PMS7003;43626;53.866;30.298;2023-05-19T08:52:01;2.6;1.8;0.8
57798;PMS7003;43626;53.866;30.298;2023-05-19T08:56:44;2.6;1.2;0.8
57798;PMS7003;43626;53.866;30.298;2023-05-19T09:02:11;2.4;2.4;1.2
57798;PMS7003;43626;53.866;30.298;2023-05-19T09:07:12;4;2.8;1.6
57798;PMS7003;43626;53.866;30.298;2023-05-19T09:12:10;2.6;1.8;0.8
57798;PMS7003;43626;53.866;30.298;2023-05-19T09:16:51;2;1.4;0.8
57798;PMS7003;43626;53.866;30.298;2023-05-19T09:22:11;3.6;2.2;1.2
57798;PMS7003;43626;53.866;30.298;2023-05-19T09:27:04;2;1.8;0.8
57798;PMS7003;43626;53.866;30.298;2023-05-19T09:31:52;3.2;2.8;0.8
57798;PMS7003;43626;53.866;30.298;2023-05-19T09:36:46;2.6;2;0.8
57798;PMS7003;43626;53.866;30.298;2023-05-19T09:42:11;2.8;2.6;1.4
57798;PMS7003;43626;53.866;30.298;2023-05-19T09:46:47;4.3;3.8;2.3
57798;PMS7003;43626;53.866;30.298;2023-05-19T09:52:01;4;3.2;1.8
57798;PMS7003;43626;53.866;30.298;2023-05-19T09:57:11;2.8;2.2;1.4
57798;PMS7003;43626;53.866;30.298;2023-05-19T10:01:39;4.4;2.8;1.4
57798;PMS7003;43626;53.866;30.298;2023-05-19T10:06:50;3.8;2.4;1
57798;PMS7003;43626;53.866;30.298;2023-05-19T10:11:52;2.6;2;1.2
57798;PMS7003;43626;53.866;30.298;2023-05-19T10:16:39;2;1.8;1.2
57798;PMS7003;43626;53.866;30.298;2023-05-19T10:21:52;3.2;2;0.8
57798;PMS7003;43626;53.866;30.298;2023-05-19T10:26:54;2.2;1.8;0.8
57798;PMS7003;43626;53.866;30.298;2023-05-19T10:31:27;3.2;2.2;0.8
57798;PMS7003;43626;53.866;30.298;2023-05-19T10:37:00;2.2;1.8;1
57798;PMS7003;43626;53.866;30.298;2023-05-19T10:42:12;3;2.2;1.4
57798;PMS7003;43626;53.866;30.298;2023-05-19T10:46:28;3;2.4;1.2
57798;PMS7003;43626;53.866;30.298;2023-05-19T10:51:50;3.5;3.3;2
57798;PMS7003;43626;53.866;30.298;2023-05-19T10:56:28;2.8;2.4;1
57798;PMS7003;43626;53.866;30.298;2023-05-19T11:02:35;2.8;2.6;1.4
57798;PMS7003;43626;53.866;30.298;2023-05-19T11:06:38;2.4;2;1
57798;PMS7003;43626;53.866;30.298;2023-05-19T11:11:41;3.8;2.2;1.4
57798;PMS7003;43626;53.866;30.298;2023-05-19T11:17:14;3.2;2.8;1.2
57798;PMS7003;43626;53.866;30.298;2023-05-19T11:21:52;3.2;2.4;1.2
57798;PMS7003;43626;53.866;30.298;2023-05-19T11:26:43;5.8;4.8;2.4
57798;PMS7003;43626;53.866;30.298;2023-05-19T11:31:43;4.8;3.2;1.8
57798;PMS7003;43626;53.866;30.298;2023-05-19T11:37:16;5.2;5.2;3.4
57798;PMS7003;43626;53.866;30.298;2023-05-19T11:41:54;31.6;28.8;16.4
57798;PMS7003;43626;53.866;30.298;2023-05-19T11:47:08;9.6;8.4;5
57798;PMS7003;43626;53.866;30.298;2023-05-19T11:52:16;39.3;33.5;22.3
57798;PMS7003;43626;53.866;30.298;2023-05-19T11:56:32;17;15;11
57798;PMS7003;43626;53.866;30.298;2023-05-19T12:01:52;4.4;4;2.6
57798;PMS7003;43626;53.866;30.298;2023-05-19T12:07:02;5;3.4;1.8
57798;PMS7003;43626;53.866;30.298;2023-05-19T12:12:00;3.2;2.8;1.6
57798;PMS7003;43626;53.866;30.298;2023-05-19T12:17:09;34;29.2;17.4
57798;PMS7003;43626;53.866;30.298;2023-05-19T12:21:54;6.8;5.2;3
57798;PMS7003;43626;53.866;30.298;2023-05-19T12:26:48;23.2;18.2;11
57798;PMS7003;43626;53.866;30.298;2023-05-19T12:31:42;6.8;6.4;3.6
57798;PMS7003;43626;53.866;30.298;2023-05-19T12:36:48;32.2;25.2;13.2
57798;PMS7003;43626;53.866;30.298;2023-05-19T12:41:46;7.8;5.8;3
57798;PMS7003;43626;53.866;30.298;2023-05-19T12:47:16;3;2.4;1.4
57798;PMS7003;43626;53.866;30.298;2023-05-19T12:51:42;3.3;2.8;0.8
57798;PMS7003;43626;53.866;30.298;2023-05-19T12:57:04;3.6;3.6;2
57798;PMS7003;43626;53.866;30.298;2023-05-19T13:02:14;3.6;2.2;1.2
57798;PMS7003;43626;53.866;30.298;2023-05-19T13:06:28;3.4;2.2;1
57798;PMS7003;43626;53.866;30.298;2023-05-19T13:11:28;3;2;1
57798;PMS7003;43626;53.866;30.298;2023-05-19T13:16:38;6;4.6;2.6
57798;PMS7003;43626;53.866;30.298;2023-05-19T13:21:38;3.2;2.8;1.8
57798;PMS7003;43626;53.866;30.298;2023-05-19T13:27:04;3.6;3.2;1.8
57798;PMS7003;43626;53.866;30.298;2023-05-19T13:31:54;2.8;2;0.8
57798;PMS7003;43626;53.866;30.298;2023-05-19T13:37:02;3.2;2.8;2
57798;PMS7003;43626;53.866;30.298;2023-05-19T13:41:42;2.4;2;1
57798;PMS7003;43626;53.866;30.298;2023-05-19T13:47:16;4.8;3.6;2.2
57798;PMS7003;43626;53.866;30.298;2023-05-19T13:51:54;3.3;2.8;1.5
57798;PMS7003;43626;53.866;30.298;2023-05-19T13:56:52;3.4;2.8;1.4
57798;PMS7003;43626;53.866;30.298;2023-05-19T14:02:16;4;3.8;2.2
57798;PMS7003;43626;53.866;30.298;2023-05-19T14:07:16;4.2;3;1.8
57798;PMS7003;43626;53.866;30.298;2023-05-19T14:11:50;3.6;2.6;1.6
57798;PMS7003;43626;53.866;30.298;2023-05-19T14:17:02;2.2;2.2;1.2
57798;PMS7003;43626;53.866;30.298;2023-05-19T14:22:16;3.4;3;1.2
57798;PMS7003;43626;53.866;30.298;2023-05-19T14:27:02;4.4;3;1.6
57798;PMS7003;43626;53.866;30.298;2023-05-19T14:31:40;4.2;4;2.8
57798;PMS7003;43626;53.866;30.298;2023-05-19T14:36:28;4;2;1
57798;PMS7003;43626;53.866;30.298;2023-05-19T14:42:16;6;5.4;3.2
57798;PMS7003;43626;53.866;30.298;2023-05-19T14:46:42;4.6;4;2.4
57798;PMS7003;43626;53.866;30.298;2023-05-19T14:52:16;8.3;7;4.5
57798;PMS7003;43626;53.866;30.298;2023-05-19T14:57:10;6.2;5.6;3.2
57798;PMS7003;43626;53.866;30.298;2023-05-19T15:01:28;5.2;4;2.4
57798;PMS7003;43626;53.866;30.298;2023-05-19T15:06:28;3.4;3.2;1.6
57798;PMS7003;43626;53.866;30.298;2023-05-19T15:11:30;4.6;3.6;2.4
57798;PMS7003;43626;53.866;30.298;2023-05-19T15:17:00;5.6;4.8;2.8
57798;PMS7003;43626;53.866;30.298;2023-05-19T15:22:10;5;3.8;2
57798;PMS7003;43626;53.866;30.298;2023-05-19T15:27:18;6;4.4;2.4
57798;PMS7003;43626;53.866;30.298;2023-05-19T15:32:10;3.8;3.4;2
57798;PMS7003;43626;53.866;30.298;2023-05-19T15:37:04;5;3.2;1.4
57798;PMS7003;43626;53.866;30.298;2023-05-19T15:42:04;4.8;4.2;2.4
57798;PMS7003;43626;53.866;30.298;2023-05-19T15:46:28;7.4;5.6;3.2
57798;PMS7003;43626;53.866;30.298;2023-05-19T15:52:18;4.8;4;1.8
57798;PMS7003;43626;53.866;30.298;2023-05-19T15:56:30;5.3;3.3;2
57798;PMS7003;43626;53.866;30.298;2023-05-19T16:02:16;5.8;4.4;2.6
57798;PMS7003;43626;53.866;30.298;2023-05-19T16:07:02;4.2;3.4;2
57798;PMS7003;43626;53.866;30.298;2023-05-19T16:12:06;3.8;2.4;1.4
57798;PMS7003;43626;53.866;30.298;2023-05-19T16:17:06;3.8;3.4;1.8
57798;PMS7003;43626;53.866;30.298;2023-05-19T16:21:48;3.4;2.4;1.6
57798;PMS7003;43626;53.866;30.298;2023-05-19T16:26:48;4.4;3.6;2.2
57798;PMS7003;43626;53.866;30.298;2023-05-19T16:31:56;6;5.4;3.2
57798;PMS7003;43626;53.866;30.298;2023-05-19T16:36:28;6.8;5.6;3.4
57798;PMS7003;43626;53.866;30.298;2023-05-19T16:42:16;7;5.8;3.6
57798;PMS7003;43626;53.866;30.298;2023-05-19T16:47:16;5.6;5;3
57798;PMS7003;43626;53.866;30.298;2023-05-19T16:51:42;5.6;4.2;2.6
57798;PMS7003;43626;53.866;30.298;2023-05-19T16:56:28;4.5;3.8;2
57798;PMS7003;43626;53.866;30.298;2023-05-19T17:02:00;6;5.2;3.2
57798;PMS7003;43626;53.866;30.298;2023-05-19T17:07:16;6.2;4.8;3.2
57798;PMS7003;43626;53.866;30.298;2023-05-19T17:11:52;6.8;5.6;3.4
57798;PMS7003;43626;53.866;30.298;2023-05-19T17:17:08;8.2;6.2;4
57798;PMS7003;43626;53.866;30.298;2023-05-19T17:21:54;7.6;5.6;4.2
57798;PMS7003;43626;53.866;30.298;2023-05-19T17:26:28;7;6;3.8
57798;PMS7003;43626;53.866;30.298;2023-05-19T17:31:34;7.2;6;3.6
57798;PMS7003;43626;53.866;30.298;2023-05-19T17:37:14;6.8;6;3.4
57798;PMS7003;43626;53.866;30.298;2023-05-19T17:41:28;5.8;4.4;2.6
57798;PMS7003;43626;53.866;30.298;2023-05-19T17:47:16;6.2;4.6;3
57798;PMS7003;43626;53.866;30.298;2023-05-19T17:52:08;7.2;6.4;3.4
57798;PMS7003;43626;53.866;30.298;2023-05-19T17:56:42;7.5;6.3;3.8
57798;PMS7003;43626;53.866;30.298;2023-05-19T18:01:40;7.8;6.6;4
57798;PMS7003;43626;53.866;30.298;2023-05-19T18:07:16;11.4;9.2;6.6
57798;PMS7003;43626;53.866;30.298;2023-05-19T18:12:16;9.4;8.6;5.2
57798;PMS7003;43626;53.866;30.298;2023-05-19T18:16:28;10;8.2;5.6
57798;PMS7003;43626;53.866;30.298;2023-05-19T18:22:16;11.8;9.2;5.4
57798;PMS7003;43626;53.866;30.298;2023-05-19T18:27:08;11.2;9.6;5.8
57798;PMS7003;43626;53.866;30.298;2023-05-19T18:31:40;11.2;9.6;5.6
57798;PMS7003;43626;53.866;30.298;2023-05-19T18:36:28;11;9.4;5.8
57798;PMS7003;43626;53.866;30.298;2023-05-19T18:41:40;10.8;9.2;5.2
57798;PMS7003;43626;53.866;30.298;2023-05-19T18:46:48;11.4;10.2;6
57798;PMS7003;43626;53.866;30.298;2023-05-19T18:51:40;10.6;9.2;5.2
57798;PMS7003;43626;53.866;30.298;2023-05-19T18:57:08;9.5;8;5.5
57798;PMS7003;43626;53.866;30.298;2023-05-19T19:02:16;8.8;7.4;4.6
57798;PMS7003;43626;53.866;30.298;2023-05-19T19:06:42;10;8.4;5
57798;PMS7003;43626;53.866;30.298;2023-05-19T19:12:00;10.2;8.8;5.2
57798;PMS7003;43626;53.866;30.298;2023-05-19T19:16:40;9.8;8;5.4
57798;PMS7003;43626;53.866;30.298;2023-05-19T19:21:28;10.2;8.6;5.4
57798;PMS7003;43626;53.866;30.298;2023-05-19T19:27:14;8.6;7.2;4.6
57798;PMS7003;43626;53.866;30.298;2023-05-19T19:31:58;9;8;5.2
57798;PMS7003;43626;53.866;30.298;2023-05-19T19:37:08;8.8;6.8;4.4
57798;PMS7003;43626;53.866;30.298;2023-05-19T19:41:40;7.4;6.4;4.2
57798;PMS7003;43626;53.866;30.298;2023-05-19T19:46:52;6.8;5.8;3.8
57798;PMS7003;43626;53.866;30.298;2023-05-19T19:51:54;7.8;5.6;3.2
57798;PMS7003;43626;53.866;30.298;2023-05-19T19:56:28;5.5;5.3;3.3
57798;PMS7003;43626;53.866;30.298;2023-05-19T20:01:28;6.6;5.2;3.2
57798;PMS7003;43626;53.866;30.298;2023-05-19T20:07:16;7;5.6;3.4
57798;PMS7003;43626;53.866;30.298;2023-05-19T20:11:40;6.6;5.2;3.4
57798;PMS7003;43626;53.866;30.298;2023-05-19T20:17:16;6.4;5.6;3.6
57798;PMS7003;43626;53.866;30.298;2023-05-19T20:22:16;6.2;5.2;3.6
57798;PMS7003;43626;53.866;30.298;2023-05-19T20:26:28;5.4;5;3
57798;PMS7003;43626;53.866;30.298;2023-05-19T20:31:42;7.8;6;4
57798;PMS7003;43626;53.866;30.298;2023-05-19T20:37:14;7.4;5.6;3
57798;PMS7003;43626;53.866;30.298;2023-05-19T20:42:16;6.8;5.4;3.6
57798;PMS7003;43626;53.866;30.298;2023-05-19T20:46:40;6.2;5.4;3
57798;PMS7003;43626;53.866;30.298;2023-05-19T20:52:16;5.8;5;3.2
57798;PMS7003;43626;53.866;30.298;2023-05-19T20:56:54;5;4.5;3.3
57798;PMS7003;43626;53.866;30.298;2023-05-19T21:02:06;5;4.4;2.4
57798;PMS7003;43626;53.866;30.298;2023-05-19T21:06:26;4.6;3.8;2.4
57798;PMS7003;43626;53.866;30.298;2023-05-19T21:11:38;5.2;4.4;2.2
57798;PMS7003;43626;53.866;30.298;2023-05-19T21:16:42;4.6;4.4;2.2
57798;PMS7003;43626;53.866;30.298;2023-05-19T21:21:26;6;4.6;3
57798;PMS7003;43626;53.866;30.298;2023-05-19T21:27:06;5.4;4.6;2.6
57798;PMS7003;43626;53.866;30.298;2023-05-19T21:32:16;4.2;4;2.4
57798;PMS7003;43626;53.866;30.298;2023-05-19T21:36:38;4.2;3.2;2
57798;PMS7003;43626;53.866;30.298;2023-05-19T21:42:02;5;4.2;2.6
57798;PMS7003;43626;53.866;30.298;2023-05-19T21:46:28;6.2;4.4;2.6
57798;PMS7003;43626;53.866;30.298;2023-05-19T21:51:40;4.4;3.4;1.6
57798;PMS7003;43626;53.866;30.298;2023-05-19T21:57:16;4.4;3.4;1.8
57798;PMS7003;43626;53.866;30.298;2023-05-19T22:02:16;4.8;4.3;2.8
57798;PMS7003;43626;53.866;30.298;2023-05-19T22:07:16;5.4;3.2;2
57798;PMS7003;43626;53.866;30.298;2023-05-19T22:12:00;4.2;3.8;2
57798;PMS7003;43626;53.866;30.298;2023-05-19T22:16:40;5.2;4.2;2.4
57798;PMS7003;43626;53.866;30.298;2023-05-19T22:21:28;3.4;3.4;1.8
57798;PMS7003;43626;53.866;30.298;2023-05-19T22:26:40;4.8;2.6;2.4
57798;PMS7003;43626;53.866;30.298;2023-05-19T22:31:46;3.8;3.2;1.6
57798;PMS7003;43626;53.866;30.298;2023-05-19T22:37:16;3.4;3;1.6
57798;PMS7003;43626;53.866;30.298;2023-05-19T22:41:28;3;2.6;1.8
57798;PMS7003;43626;53.866;30.298;2023-05-19T22:47:14;3.6;2.8;1.6
57798;PMS7003;43626;53.866;30.298;2023-05-19T22:52:16;4;3.4;1.8
57798;PMS7003;43626;53.866;30.298;2023-05-19T22:56:54;3.4;3;1.6
57798;PMS7003;43626;53.866;30.298;2023-05-19T23:01:28;4;3.3;2
57798;PMS7003;43626;53.866;30.298;2023-05-19T23:07:00;5;3.2;2
57798;PMS7003;43626;53.866;30.298;2023-05-19T23:12:16;5;4.2;2
57798;PMS7003;43626;53.866;30.298;2023-05-19T23:16:28;4;3.2;2.4
57798;PMS7003;43626;53.866;30.298;2023-05-19T23:22:00;4.4;3.6;2
57798;PMS7003;43626;53.866;30.298;2023-05-19T23:26:54;5;4;2.4
57798;PMS7003;43626;53.866;30.298;2023-05-19T23:31:28;5;4.4;2.4
57798;PMS7003;43626;53.866;30.298;2023-05-19T23:36:46;4.8;4.6;2.6
57798;PMS7003;43626;53.866;30.298;2023-05-19T23:41:52;4.2;3.6;2.4
57798;PMS7003;43626;53.866;30.298;2023-05-19T23:47:04;5.4;4.8;3
57798;PMS7003;43626;53.866;30.298;2023-05-19T23:52:02;5;4.8;3.2
57798;PMS7003;43626;53.866;30.298;2023-05-19T23:56:42;5.4;4.2;2.8
